Time;durP1;ratioP1;P1;durP2;ratioP2;P2;SDS_P1;SDS_P2;PMS_P1;PMS_P2;Temp;Humidity;BMP_temperature;BMP_pressure;BME280_temperature;BME280_humidity;BME280_pressure;Samples;Min_cycle;Max_cycle;Signal;HPM_P1;HPM_P2
2023/12/03 00:00:09;;;;;;;;;57.25;52.00;;;;;;;;5049572;28;8839;-78
2023/12/03 00:02:36;;;;;;;;;54.25;49.25;;;;;;;;5069270;28;8878;-78
2023/12/03 00:05:06;;;;;;;;;52.25;48.00;;;;;;;;5073520;28;8827;-79
2023/12/03 00:07:33;;;;;;;;;49.00;46.75;;;;;;;;5062322;28;8875;-77
2023/12/03 00:10:01;;;;;;;;;56.25;51.00;;;;;;;;5054421;28;8851;-80
2023/12/03 00:12:30;;;;;;;;;55.25;49.50;;;;;;;;5051604;28;8852;-77
2023/12/03 00:14:57;;;;;;;;;51.25;47.75;;;;;;;;5052444;28;8898;-79
2023/12/03 00:17:25;;;;;;;;;56.75;51.25;;;;;;;;5053985;28;8859;-78
2023/12/03 00:19:52;;;;;;;;;56.50;49.00;;;;;;;;5050605;28;8851;-77
2023/12/03 00:22:19;;;;;;;;;59.00;51.00;;;;;;;;5050183;28;8908;-78
2023/12/03 00:24:47;;;;;;;;;63.50;53.00;;;;;;;;5051069;28;9678;-80
2023/12/03 00:27:14;;;;;;;;;52.50;48.00;;;;;;;;5051470;28;9000;-77
2023/12/03 00:29:42;;;;;;;;;65.25;55.50;;;;;;;;5052693;28;8982;-79
2023/12/03 00:32:10;;;;;;;;;65.50;56.25;;;;;;;;5038456;28;8903;-80
2023/12/03 00:34:37;;;;;;;;;65.50;52.00;;;;;;;;5046653;28;8867;-79
2023/12/03 00:37:04;;;;;;;;;67.25;56.50;;;;;;;;5049863;28;8908;-80
2023/12/03 00:39:32;;;;;;;;;67.50;56.50;;;;;;;;5051208;28;8859;-79
2023/12/03 00:41:59;;;;;;;;;55.25;49.25;;;;;;;;5047820;28;8873;-78
2023/12/03 00:44:27;;;;;;;;;62.75;54.00;;;;;;;;5049344;28;8878;-78
2023/12/03 00:46:55;;;;;;;;;68.25;57.75;;;;;;;;5050895;28;8973;-78
2023/12/03 00:49:23;;;;;;;;;60.50;51.25;;;;;;;;5051476;28;8870;-78
2023/12/03 00:51:50;;;;;;;;;68.00;58.00;;;;;;;;5050154;28;8843;-77
2023/12/03 00:54:17;;;;;;;;;76.00;60.75;;;;;;;;5049511;28;8881;-79
2023/12/03 00:56:45;;;;;;;;;66.75;56.75;;;;;;;;5046899;28;8834;-78
2023/12/03 00:59:12;;;;;;;;;70.00;60.00;;;;;;;;5048554;28;8874;-78
2023/12/03 01:01:39;;;;;;;;;76.50;63.50;;;;;;;;5047640;28;8810;-78
2023/12/03 01:04:08;;;;;;;;;70.25;60.25;;;;;;;;5048565;28;8890;-79
2023/12/03 01:06:35;;;;;;;;;72.75;59.25;;;;;;;;5040168;28;8847;-78
2023/12/03 01:09:02;;;;;;;;;71.25;60.25;;;;;;;;5048551;28;8851;-79
2023/12/03 01:11:29;;;;;;;;;70.00;57.50;;;;;;;;5048628;28;8906;-79
2023/12/03 01:13:57;;;;;;;;;68.00;57.75;;;;;;;;5048321;28;8882;-79
2023/12/03 01:16:24;;;;;;;;;21.25;16.00;;;;;;;;5040930;28;8855;-80
2023/12/03 01:18:51;;;;;;;;;70.00;58.50;;;;;;;;5047866;28;8855;-78
2023/12/03 01:21:20;;;;;;;;;74.50;60.75;;;;;;;;5048409;28;8843;-79
2023/12/03 01:23:49;;;;;;;;;71.25;58.00;;;;;;;;5048249;28;8918;-79
2023/12/03 01:26:16;;;;;;;;;73.75;61.00;;;;;;;;5048359;28;8843;-79
2023/12/03 01:28:44;;;;;;;;;67.25;57.25;;;;;;;;5047577;28;8851;-79
2023/12/03 01:31:11;;;;;;;;;67.00;57.25;;;;;;;;5047961;28;9093;-78
2023/12/03 01:33:38;;;;;;;;;68.75;55.50;;;;;;;;5048179;28;8982;-78
2023/12/03 01:36:06;;;;;;;;;68.50;58.25;;;;;;;;5041225;28;9001;-80
2023/12/03 01:38:35;;;;;;;;;71.00;59.25;;;;;;;;5047541;28;8960;-79
2023/12/03 01:41:02;;;;;;;;;67.00;57.00;;;;;;;;5048105;28;8843;-80
2023/12/03 01:43:29;;;;;;;;;68.00;56.50;;;;;;;;5035082;28;8823;-80
2023/12/03 01:45:57;;;;;;;;;63.25;53.00;;;;;;;;5047262;28;8843;-80
2023/12/03 01:48:25;;;;;;;;;73.25;59.50;;;;;;;;5046394;28;8839;-78
2023/12/03 01:50:53;;;;;;;;;71.75;57.50;;;;;;;;5047935;28;8866;-78
2023/12/03 01:53:24;;;;;;;;;68.25;57.50;;;;;;;;5048329;28;8839;-79
2023/12/03 01:55:53;;;;;;;;;58.75;51.25;;;;;;;;5047928;28;8867;-78
2023/12/03 01:58:20;;;;;;;;;63.25;52.25;;;;;;;;5048741;28;9649;-79
2023/12/03 02:00:47;;;;;;;;;66.75;55.00;;;;;;;;5046452;28;8812;-79
2023/12/03 02:03:15;;;;;;;;;70.00;59.50;;;;;;;;5048214;28;8855;-80
2023/12/03 02:05:42;;;;;;;;;69.50;58.50;;;;;;;;5052929;28;9786;-80
2023/12/03 02:08:09;;;;;;;;;68.25;58.00;;;;;;;;5051949;28;9764;-79
2023/12/03 02:10:37;;;;;;;;;68.00;57.25;;;;;;;;5053272;28;8962;-80
2023/12/03 02:13:05;;;;;;;;;66.50;55.75;;;;;;;;5053774;28;8869;-80
2023/12/03 02:15:32;;;;;;;;;69.50;56.75;;;;;;;;5053947;28;8867;-80
2023/12/03 02:18:02;;;;;;;;;67.25;55.25;;;;;;;;5052617;28;9752;-80
2023/12/03 02:20:30;;;;;;;;;64.00;55.50;;;;;;;;5054585;28;8990;-79
2023/12/03 02:23:01;;;;;;;;;66.75;55.75;;;;;;;;5055498;28;8885;-79
2023/12/03 02:25:28;;;;;;;;;61.75;53.75;;;;;;;;5044233;28;8901;-78
2023/12/03 02:27:55;;;;;;;;;68.50;56.75;;;;;;;;5043228;28;8854;-78
2023/12/03 02:30:22;;;;;;;;;65.00;54.25;;;;;;;;5051151;28;8839;-79
2023/12/03 02:32:50;;;;;;;;;71.00;59.25;;;;;;;;5052943;28;8957;-79
2023/12/03 02:35:17;;;;;;;;;62.75;53.25;;;;;;;;5044007;28;8873;-79
2023/12/03 02:37:44;;;;;;;;;67.25;57.75;;;;;;;;5054367;28;8889;-80
2023/12/03 02:40:13;;;;;;;;;50.50;46.25;;;;;;;;5052903;28;8879;-79
2023/12/03 02:42:40;;;;;;;;;67.75;55.75;;;;;;;;5052780;28;8836;-78
2023/12/03 02:45:10;;;;;;;;;60.50;51.50;;;;;;;;5046179;28;8861;-78
2023/12/03 02:47:38;;;;;;;;;67.25;54.25;;;;;;;;5048964;28;8884;-77
2023/12/03 02:50:06;;;;;;;;;67.00;57.75;;;;;;;;5051646;28;9007;-80
2023/12/03 02:52:35;;;;;;;;;64.50;54.50;;;;;;;;5049452;28;8867;-79
2023/12/03 02:55:02;;;;;;;;;64.25;53.75;;;;;;;;5050945;28;8859;-79
2023/12/03 02:57:31;;;;;;;;;69.50;58.25;;;;;;;;5050446;28;8989;-79
2023/12/03 02:59:58;;;;;;;;;65.75;56.50;;;;;;;;5050837;28;9676;-79
2023/12/03 03:02:25;;;;;;;;;68.00;57.25;;;;;;;;5050325;28;9574;-80
2023/12/03 03:04:52;;;;;;;;;63.25;53.00;;;;;;;;5049338;28;8993;-78
2023/12/03 03:07:21;;;;;;;;;63.00;52.75;;;;;;;;5050741;28;8873;-81
2023/12/03 03:09:48;;;;;;;;;64.25;54.00;;;;;;;;5051341;28;8886;-80
2023/12/03 03:12:15;;;;;;;;;67.00;57.00;;;;;;;;5050910;28;9634;-79
2023/12/03 03:14:44;;;;;;;;;67.75;57.25;;;;;;;;5050112;28;8893;-79
2023/12/03 03:17:11;;;;;;;;;63.25;53.50;;;;;;;;5050072;28;9682;-79
2023/12/03 03:19:38;;;;;;;;;64.50;53.75;;;;;;;;5050599;28;8985;-76
2023/12/03 03:22:05;;;;;;;;;45.25;43.50;;;;;;;;5049446;28;8877;-79
2023/12/03 03:24:32;;;;;;;;;68.25;56.75;;;;;;;;5051649;28;8869;-79
2023/12/03 03:27:03;;;;;;;;;59.75;49.50;;;;;;;;5053971;28;8837;-80
2023/12/03 03:29:30;;;;;;;;;60.25;51.75;;;;;;;;5050122;28;8879;-78
2023/12/03 03:31:58;;;;;;;;;67.50;56.00;;;;;;;;5049837;28;8814;-80
2023/12/03 03:34:26;;;;;;;;;53.50;46.25;;;;;;;;5050221;28;8850;-79
2023/12/03 03:36:53;;;;;;;;;66.50;54.50;;;;;;;;5050788;28;8863;-79
2023/12/03 03:39:20;;;;;;;;;62.00;51.75;;;;;;;;5049287;28;8859;-79
2023/12/03 03:41:47;;;;;;;;;50.00;46.33;;;;;;;;5040335;28;8873;-78
2023/12/03 03:44:15;;;;;;;;;56.00;50.00;;;;;;;;5047936;28;8839;-78
2023/12/03 03:46:42;;;;;;;;;58.67;50.33;;;;;;;;5050849;28;8855;-80
2023/12/03 03:49:10;;;;;;;;;50.33;42.67;;;;;;;;5050136;28;8959;-80
2023/12/03 03:51:38;;;;;;;;;56.25;49.50;;;;;;;;5048834;28;8851;-80
2023/12/03 03:54:05;;;;;;;;;54.67;47.33;;;;;;;;5050458;28;8859;-79
2023/12/03 03:56:33;;;;;;;;;48.00;45.00;;;;;;;;5051218;28;8989;-80
2023/12/03 03:59:00;;;;;;;;;56.67;47.67;;;;;;;;5052822;28;8854;-80
2023/12/03 04:01:27;;;;;;;;;51.00;46.67;;;;;;;;5051585;28;8811;-80
2023/12/03 04:03:54;;;;;;;;;49.67;46.33;;;;;;;;5044863;28;8835;-80
2023/12/03 04:06:23;;;;;;;;;60.00;51.67;;;;;;;;5039962;28;8865;-79
2023/12/03 04:08:50;;;;;;;;;53.00;46.67;;;;;;;;5044495;28;8904;-80
2023/12/03 04:11:18;;;;;;;;;51.33;45.67;;;;;;;;5045952;28;9008;-78
2023/12/03 04:13:45;;;;;;;;;56.00;49.67;;;;;;;;5051646;28;8862;-79
2023/12/03 04:16:23;;;;;;;;;56.33;48.67;;;;;;;;5050587;28;8877;-78
2023/12/03 04:18:51;;;;;;;;;59.00;48.00;;;;;;;;5050130;28;8863;-76
2023/12/03 04:21:18;;;;;;;;;54.33;46.67;;;;;;;;5052206;28;8962;-77
2023/12/03 04:23:46;;;;;;;;;43.67;41.33;;;;;;;;5051591;28;8886;-79
2023/12/03 04:26:15;;;;;;;;;43.33;40.67;;;;;;;;5050426;28;8886;-80
2023/12/03 04:28:42;;;;;;;;;54.33;48.67;;;;;;;;5048709;28;8839;-79
2023/12/03 04:31:21;;;;;;;;;59.33;50.67;;;;;;;;5048772;28;8784;-80
2023/12/03 04:33:50;;;;;;;;;47.00;44.67;;;;;;;;5049453;28;8949;-79
2023/12/03 04:36:17;;;;;;;;;55.00;48.00;;;;;;;;5049049;28;8870;-79
2023/12/03 04:38:46;;;;;;;;;56.00;47.67;;;;;;;;5048759;28;8866;-80
2023/12/03 04:41:13;;;;;;;;;51.00;44.00;;;;;;;;5048977;28;8871;-80
2023/12/03 04:43:41;;;;;;;;;64.00;54.67;;;;;;;;5049080;28;8867;-79
2023/12/03 04:46:08;;;;;;;;;48.67;43.67;;;;;;;;5048531;28;8835;-80
2023/12/03 04:48:36;;;;;;;;;41.67;41.33;;;;;;;;5039697;28;8916;-79
2023/12/03 04:51:04;;;;;;;;;55.00;47.67;;;;;;;;5045739;28;8839;-79
2023/12/03 04:53:34;;;;;;;;;52.67;47.67;;;;;;;;5046950;28;9013;-79
2023/12/03 04:56:04;;;;;;;;;47.67;44.00;;;;;;;;5048013;28;8869;-78
2023/12/03 04:58:32;;;;;;;;;47.33;44.00;;;;;;;;5047276;28;8859;-79
2023/12/03 05:01:03;;;;;;;;;39.67;39.33;;;;;;;;5047115;28;8794;-78
2023/12/03 05:03:30;;;;;;;;;51.67;44.33;;;;;;;;5047933;28;8879;-79
2023/12/03 05:05:58;;;;;;;;;44.00;41.67;;;;;;;;5048092;28;8859;-79
2023/12/03 05:08:25;;;;;;;;;49.67;44.67;;;;;;;;5048665;28;8844;-79
2023/12/03 05:10:54;;;;;;;;;36.00;36.00;;;;;;;;5050011;28;8859;-80
2023/12/03 05:13:22;;;;;;;;;51.33;47.33;;;;;;;;5050060;28;8859;-79
2023/12/03 05:15:50;;;;;;;;;45.00;42.67;;;;;;;;5049033;28;8866;-77
2023/12/03 05:18:17;;;;;;;;;45.00;42.00;;;;;;;;5047671;28;9007;-78
2023/12/03 05:20:44;;;;;;;;;44.00;41.33;;;;;;;;5037641;28;8855;-78
2023/12/03 05:23:12;;;;;;;;;44.67;43.33;;;;;;;;5047380;28;8875;-79
2023/12/03 05:25:39;;;;;;;;;50.00;45.00;;;;;;;;5047991;28;8859;-79
2023/12/03 05:28:06;;;;;;;;;57.67;47.00;;;;;;;;5046218;28;8846;-80
2023/12/03 05:30:35;;;;;;;;;49.00;43.00;;;;;;;;5047568;28;8890;-80
2023/12/03 05:33:02;;;;;;;;;43.67;42.00;;;;;;;;5046496;28;8839;-78
2023/12/03 05:35:32;;;;;;;;;44.33;43.33;;;;;;;;5048034;28;8986;-80
2023/12/03 05:38:00;;;;;;;;;42.00;41.33;;;;;;;;5046899;28;8970;-78
2023/12/03 05:40:27;;;;;;;;;44.67;38.00;;;;;;;;5047914;28;8847;-80
2023/12/03 05:42:55;;;;;;;;;41.33;38.00;;;;;;;;5048225;28;8977;-81
2023/12/03 05:45:22;;;;;;;;;49.67;44.00;;;;;;;;5049678;28;8859;-80
2023/12/03 05:47:51;;;;;;;;;46.33;43.33;;;;;;;;5048025;28;8851;-80
2023/12/03 05:50:18;;;;;;;;;47.67;43.33;;;;;;;;5050220;28;9778;-80
2023/12/03 05:52:46;;;;;;;;;46.67;41.33;;;;;;;;5048536;28;9017;-79
2023/12/03 05:55:13;;;;;;;;;46.00;42.00;;;;;;;;5039372;28;8870;-78
2023/12/03 05:57:40;;;;;;;;;53.00;48.33;;;;;;;;5051799;28;8851;-80
2023/12/03 06:00:08;;;;;;;;;42.67;41.67;;;;;;;;5053467;28;8853;-81
2023/12/03 06:02:36;;;;;;;;;44.33;42.00;;;;;;;;5048815;28;8950;-78
2023/12/03 06:05:05;;;;;;;;;44.33;41.67;;;;;;;;5049528;28;8995;-79
2023/12/03 06:07:33;;;;;;;;;41.00;40.33;;;;;;;;5047424;28;8887;-78
2023/12/03 06:10:00;;;;;;;;;48.00;44.00;;;;;;;;5048765;28;8865;-78
2023/12/03 06:12:27;;;;;;;;;46.00;43.33;;;;;;;;5050422;28;9781;-78
2023/12/03 06:14:55;;;;;;;;;49.67;42.00;;;;;;;;5049647;28;8855;-80
2023/12/03 06:17:22;;;;;;;;;41.33;41.33;;;;;;;;5037508;28;8866;-80
2023/12/03 06:19:49;;;;;;;;;40.00;38.67;;;;;;;;5043730;28;8868;-79
2023/12/03 06:22:18;;;;;;;;;43.33;42.00;;;;;;;;5047202;28;8900;-79
2023/12/03 06:24:45;;;;;;;;;47.00;42.00;;;;;;;;5046474;28;8894;-80
2023/12/03 06:27:12;;;;;;;;;44.00;40.33;;;;;;;;5047341;28;8858;-80
2023/12/03 06:29:40;;;;;;;;;45.67;40.67;;;;;;;;5046421;28;9641;-80
2023/12/03 06:32:08;;;;;;;;;45.00;42.67;;;;;;;;5047101;28;8792;-79
2023/12/03 06:34:35;;;;;;;;;48.67;41.33;;;;;;;;5049987;28;8867;-79
2023/12/03 06:37:04;;;;;;;;;41.67;40.67;;;;;;;;5050528;28;9001;-79
2023/12/03 06:39:33;;;;;;;;;50.00;42.67;;;;;;;;5046103;28;8972;-79
2023/12/03 06:42:00;;;;;;;;;45.67;42.00;;;;;;;;5048055;28;9658;-79
2023/12/03 06:44:27;;;;;;;;;49.67;41.00;;;;;;;;5045704;28;8974;-77
2023/12/03 06:46:54;;;;;;;;;45.33;42.00;;;;;;;;5049716;28;9005;-77
2023/12/03 06:49:22;;;;;;;;;44.33;40.67;;;;;;;;5033207;28;8977;-82
2023/12/03 06:51:49;;;;;;;;;40.67;38.67;;;;;;;;5049360;28;8889;-80
2023/12/03 06:54:16;;;;;;;;;48.00;43.00;;;;;;;;5050157;28;9630;-79
2023/12/03 06:56:45;;;;;;;;;42.00;41.00;;;;;;;;5050643;28;8882;-79
2023/12/03 06:59:12;;;;;;;;;41.33;40.33;;;;;;;;5049727;28;8978;-78
2023/12/03 07:01:39;;;;;;;;;43.67;41.33;;;;;;;;5049736;28;8819;-80
2023/12/03 07:04:06;;;;;;;;;36.00;36.00;;;;;;;;5050415;28;8879;-80
2023/12/03 07:06:33;;;;;;;;;45.33;42.00;;;;;;;;5051083;28;8871;-81
2023/12/03 07:09:00;;;;;;;;;36.67;36.67;;;;;;;;5050133;28;9010;-76
2023/12/03 07:11:30;;;;;;;;;40.67;40.00;;;;;;;;5050361;28;8859;-75
2023/12/03 07:13:59;;;;;;;;;39.00;32.67;;;;;;;;5049747;28;8843;-75
2023/12/03 07:16:29;;;;;;;;;44.33;41.33;;;;;;;;5051189;28;8843;-82
2023/12/03 07:18:56;;;;;;;;;51.00;44.33;;;;;;;;5050902;28;8970;-83
2023/12/03 07:21:24;;;;;;;;;43.33;34.33;;;;;;;;5050939;28;8850;-83
2023/12/03 07:23:51;;;;;;;;;46.67;41.00;;;;;;;;5050966;28;8974;-84
2023/12/03 07:26:18;;;;;;;;;51.67;43.00;;;;;;;;5050849;28;8843;-81
2023/12/03 07:28:46;;;;;;;;;40.67;39.00;;;;;;;;5039214;28;8865;-84
2023/12/03 07:31:15;;;;;;;;;45.67;41.00;;;;;;;;5049579;28;8807;-79
2023/12/03 07:33:43;;;;;;;;;47.67;43.00;;;;;;;;5051174;28;8863;-81
2023/12/03 07:36:11;;;;;;;;;53.67;41.67;;;;;;;;5050704;28;8874;-78
2023/12/03 07:38:39;;;;;;;;;51.00;42.67;;;;;;;;5051577;28;8847;-77
2023/12/03 07:41:11;;;;;;;;;55.67;42.00;;;;;;;;5052110;28;8870;-80
2023/12/03 07:43:38;;;;;;;;;47.67;43.00;;;;;;;;5051007;28;8870;-81
2023/12/03 07:46:06;;;;;;;;;45.67;39.00;;;;;;;;5039435;28;8989;-79
2023/12/03 07:48:35;;;;;;;;;34.33;29.33;;;;;;;;5051575;28;8879;-79
2023/12/03 07:51:02;;;;;;;;;39.33;39.00;;;;;;;;5048978;28;8859;-79
2023/12/03 07:53:32;;;;;;;;;44.00;39.33;;;;;;;;5043057;28;8880;-80
2023/12/03 07:55:59;;;;;;;;;50.67;42.33;;;;;;;;5048996;28;8867;-78
2023/12/03 07:58:27;;;;;;;;;54.67;42.00;;;;;;;;5051165;28;8989;-80
2023/12/03 08:00:58;;;;;;;;;53.00;42.33;;;;;;;;5050403;28;8859;-77
2023/12/03 08:03:25;;;;;;;;;47.00;42.00;;;;;;;;5052350;28;8873;-79
2023/12/03 08:05:54;;;;;;;;;51.00;38.67;;;;;;;;5051877;28;8920;-78
2023/12/03 08:08:21;;;;;;;;;36.33;36.33;;;;;;;;5049185;28;8865;-75
2023/12/03 08:10:48;;;;;;;;;43.67;40.33;;;;;;;;5048995;28;8962;-80
2023/12/03 08:13:16;;;;;;;;;21.00;16.00;;;;;;;;5048952;28;8842;-77
2023/12/03 08:15:43;;;;;;;;;44.33;35.00;;;;;;;;5048674;28;8859;-76
2023/12/03 08:18:10;;;;;;;;;49.67;41.67;;;;;;;;5048835;28;8855;-80
2023/12/03 08:20:37;;;;;;;;;43.67;39.00;;;;;;;;5045597;28;8835;-77
2023/12/03 08:23:06;;;;;;;;;34.33;31.33;;;;;;;;5049254;28;8877;-79
2023/12/03 08:25:33;;;;;;;;;31.00;27.33;;;;;;;;5042032;28;8855;-79
2023/12/03 08:28:00;;;;;;;;;41.33;34.67;;;;;;;;5050992;28;8874;-81
2023/12/03 08:30:27;;;;;;;;;57.00;42.67;;;;;;;;5048277;28;8780;-76
2023/12/03 08:32:54;;;;;;;;;47.67;42.33;;;;;;;;5048885;28;8870;-78
2023/12/03 08:35:21;;;;;;;;;47.67;41.33;;;;;;;;5040996;28;8843;-79
2023/12/03 08:37:49;;;;;;;;;46.33;42.00;;;;;;;;5048499;28;8853;-78
2023/12/03 08:40:18;;;;;;;;;40.67;37.00;;;;;;;;5049637;28;8846;-81
2023/12/03 08:42:45;;;;;;;;;42.33;37.00;;;;;;;;5048405;28;8855;-79
2023/12/03 08:45:12;;;;;;;;;47.33;40.00;;;;;;;;5049057;28;8843;-77
2023/12/03 08:47:39;;;;;;;;;41.67;35.67;;;;;;;;5048350;28;8819;-76
2023/12/03 08:50:08;;;;;;;;;46.67;41.00;;;;;;;;5048492;28;8839;-81
2023/12/03 08:52:35;;;;;;;;;42.33;41.00;;;;;;;;5044424;28;8859;-78
2023/12/03 08:55:02;;;;;;;;;41.00;35.67;;;;;;;;5048855;28;8839;-79
2023/12/03 08:57:31;;;;;;;;;46.67;37.67;;;;;;;;5048614;28;9617;-81
2023/12/03 08:59:58;;;;;;;;;36.00;32.67;;;;;;;;5049640;28;8883;-79
2023/12/03 09:02:25;;;;;;;;;43.33;37.00;;;;;;;;5059309;28;8838;-80
2023/12/03 09:04:52;;;;;;;;;47.00;39.67;;;;;;;;5051311;28;8877;-80
2023/12/03 09:07:20;;;;;;;;;49.00;42.67;;;;;;;;5048079;28;8851;-80
2023/12/03 09:09:47;;;;;;;;;44.33;38.33;;;;;;;;5048284;28;8878;-80
2023/12/03 09:12:17;;;;;;;;;53.33;42.67;;;;;;;;5046750;28;8871;-81
2023/12/03 09:14:46;;;;;;;;;36.67;32.00;;;;;;;;5048242;28;8870;-82
2023/12/03 09:17:13;;;;;;;;;24.67;23.00;;;;;;;;5047977;28;8847;-83
2023/12/03 09:19:40;;;;;;;;;37.33;35.00;;;;;;;;5048555;28;8963;-77
2023/12/03 09:22:07;;;;;;;;;36.67;35.00;;;;;;;;5047953;28;8855;-82
2023/12/03 09:24:34;;;;;;;;;38.67;37.33;;;;;;;;5049470;28;8847;-81
2023/12/03 09:27:02;;;;;;;;;37.33;34.33;;;;;;;;5049280;28;8866;-81
2023/12/03 09:29:31;;;;;;;;;41.67;36.00;;;;;;;;5050285;28;8828;-81
2023/12/03 09:32:04;;;;;;;;;42.00;34.67;;;;;;;;5050458;28;8873;-80
2023/12/03 09:34:31;;;;;;;;;56.33;47.33;;;;;;;;5052730;28;8835;-82
2023/12/03 09:37:02;;;;;;;;;72.00;59.00;;;;;;;;5045475;28;8865;-79
2023/12/03 09:39:29;;;;;;;;;39.67;38.33;;;;;;;;5043149;28;8966;-80
2023/12/03 09:41:58;;;;;;;;;59.33;42.00;;;;;;;;5039146;28;8881;-78
2023/12/03 09:44:28;;;;;;;;;28.33;28.33;;;;;;;;5045600;28;8867;-78
2023/12/03 09:46:55;;;;;;;;;48.00;44.33;;;;;;;;5049684;28;8896;-79
2023/12/03 09:49:24;;;;;;;;;41.00;35.67;;;;;;;;5037482;28;9636;-79
2023/12/03 09:51:52;;;;;;;;;28.00;26.00;;;;;;;;5049201;28;8851;-78
2023/12/03 09:54:20;;;;;;;;;50.67;38.00;;;;;;;;5049088;28;8862;-77
2023/12/03 09:56:48;;;;;;;;;32.67;28.00;;;;;;;;5049529;28;9260;-80
2023/12/03 09:59:16;;;;;;;;;27.33;26.00;;;;;;;;5047014;28;8969;-76
2023/12/03 10:01:43;;;;;;;;;28.33;25.00;;;;;;;;5047311;28;8791;-79
2023/12/03 10:04:11;;;;;;;;;29.67;23.00;;;;;;;;5047186;28;8873;-81
2023/12/03 10:06:43;;;;;;;;;35.67;33.00;;;;;;;;5047306;28;8858;-81
2023/12/03 10:09:13;;;;;;;;;29.00;26.33;;;;;;;;5046247;28;9597;-79
2023/12/03 10:11:41;;;;;;;;;37.67;34.33;;;;;;;;5047666;28;9704;-80
2023/12/03 10:14:11;;;;;;;;;39.33;37.33;;;;;;;;5046907;28;9601;-77
2023/12/03 10:16:38;;;;;;;;;35.67;29.00;;;;;;;;5047449;28;9716;-81
2023/12/03 10:19:06;;;;;;;;;32.33;27.67;;;;;;;;5047676;28;8867;-78
2023/12/03 10:21:33;;;;;;;;;24.33;21.67;;;;;;;;5047187;28;8940;-80
2023/12/03 10:24:03;;;;;;;;;30.00;30.00;;;;;;;;5047904;28;8865;-83
2023/12/03 10:26:31;;;;;;;;;35.67;31.00;;;;;;;;5051101;28;8866;-82
2023/12/03 10:28:58;;;;;;;;;34.67;32.33;;;;;;;;5041500;28;8857;-78
2023/12/03 10:31:30;;;;;;;;;32.33;29.67;;;;;;;;5051080;28;8823;-85
2023/12/03 10:33:57;;;;;;;;;38.00;33.33;;;;;;;;5051132;28;8924;-75
2023/12/03 10:36:25;;;;;;;;;37.00;25.33;;;;;;;;5050811;28;9644;-80
2023/12/03 10:38:52;;;;;;;;;42.33;38.67;;;;;;;;5050178;28;8901;-75
2023/12/03 10:41:21;;;;;;;;;31.67;31.67;;;;;;;;5050707;28;8877;-83
2023/12/03 10:43:48;;;;;;;;;35.67;27.67;;;;;;;;5051236;28;11610;-79
2023/12/03 10:46:15;;;;;;;;;24.00;22.67;;;;;;;;5050613;28;8840;-80
2023/12/03 10:48:42;;;;;;;;;28.67;25.67;;;;;;;;5045532;28;11699;-81
2023/12/03 10:51:11;;;;;;;;;35.33;33.00;;;;;;;;5048896;28;8851;-78
2023/12/03 10:53:39;;;;;;;;;30.33;27.33;;;;;;;;5050990;28;8852;-81
2023/12/03 10:56:07;;;;;;;;;32.33;28.33;;;;;;;;5050150;28;11619;-78
2023/12/03 10:58:37;;;;;;;;;34.67;31.00;;;;;;;;5050781;28;8840;-82
2023/12/03 11:01:09;;;;;;;;;41.67;32.67;;;;;;;;5049808;28;8838;-81
2023/12/03 11:03:56;;;;;;;;;34.33;32.00;;;;;;;;5049562;28;8875;-79
2023/12/03 11:06:24;;;;;;;;;27.33;21.00;;;;;;;;5051430;28;8973;-79
2023/12/03 11:08:52;;;;;;;;;26.00;22.00;;;;;;;;5049410;28;8858;-77
2023/12/03 11:11:21;;;;;;;;;33.00;31.00;;;;;;;;5050367;28;8882;-78
2023/12/03 11:13:51;;;;;;;;;37.33;30.00;;;;;;;;5049709;28;8850;-78
2023/12/03 11:16:20;;;;;;;;;43.33;36.67;;;;;;;;5051188;28;8854;-78
2023/12/03 11:18:53;;;;;;;;;28.00;24.33;;;;;;;;5051280;28;9006;-78
2023/12/03 11:21:33;;;;;;;;;38.67;32.00;;;;;;;;5050685;28;8851;-78
2023/12/03 11:24:27;;;;;;;;;37.00;28.67;;;;;;;;5041541;28;8851;-78
2023/12/03 11:26:57;;;;;;;;;46.33;39.33;;;;;;;;5047392;28;8867;-76
2023/12/03 11:29:50;;;;;;;;;49.67;41.00;;;;;;;;5053521;28;8869;-78
2023/12/03 11:32:17;;;;;;;;;34.33;31.00;;;;;;;;5053716;28;9197;-78
2023/12/03 11:34:45;;;;;;;;;31.67;30.00;;;;;;;;5049257;28;11626;-78
2023/12/03 11:37:15;;;;;;;;;30.33;27.33;;;;;;;;5041922;28;8865;-76
2023/12/03 11:39:44;;;;;;;;;31.00;28.67;;;;;;;;5049442;28;11694;-76
2023/12/03 11:42:13;;;;;;;;;29.67;28.00;;;;;;;;5051781;28;11611;-84
2023/12/03 11:44:41;;;;;;;;;37.67;29.00;;;;;;;;5050370;28;11574;-78
2023/12/03 11:47:12;;;;;;;;;29.33;29.33;;;;;;;;5044045;28;11569;-79
2023/12/03 11:49:40;;;;;;;;;28.00;24.33;;;;;;;;5048844;28;11549;-81
2023/12/03 11:52:07;;;;;;;;;29.67;29.67;;;;;;;;5048321;28;11577;-75
2023/12/03 11:54:38;;;;;;;;;35.33;31.00;;;;;;;;5049690;28;11671;-76
2023/12/03 11:57:14;;;;;;;;;26.67;25.00;;;;;;;;5048893;28;11605;-78
2023/12/03 11:59:43;;;;;;;;;25.67;22.00;;;;;;;;5040531;28;11550;-77
2023/12/03 12:02:11;;;;;;;;;32.67;28.33;;;;;;;;5048643;28;11510;-81
2023/12/03 12:04:39;;;;;;;;;33.33;26.00;;;;;;;;5049263;28;11550;-77
2023/12/03 12:07:16;;;;;;;;;28.00;26.67;;;;;;;;5048846;28;11567;-80
2023/12/03 12:09:43;;;;;;;;;25.67;21.00;;;;;;;;5049139;28;11564;-80
2023/12/03 12:12:10;;;;;;;;;30.67;23.67;;;;;;;;5049058;28;12325;-79
2023/12/03 12:14:45;;;;;;;;;31.00;29.00;;;;;;;;5049247;28;11581;-76
2023/12/03 12:17:14;;;;;;;;;29.00;29.00;;;;;;;;5048621;28;11685;-77
2023/12/03 12:19:46;;;;;;;;;29.33;26.33;;;;;;;;5049047;28;12353;-75
2023/12/03 12:22:13;;;;;;;;;37.00;30.50;;;;;;;;5037526;28;11563;-78
2023/12/03 12:24:40;;;;;;;;;30.00;28.00;;;;;;;;5047960;28;11587;-75
2023/12/03 12:27:08;;;;;;;;;29.67;19.67;;;;;;;;5048958;28;11671;-77
2023/12/03 12:29:35;;;;;;;;;31.33;29.00;;;;;;;;5048364;28;11721;-77
2023/12/03 12:32:02;;;;;;;;;35.00;29.67;;;;;;;;5047885;28;11513;-77
2023/12/03 12:34:31;;;;;;;;;26.00;23.00;;;;;;;;5048438;28;11574;-75
2023/12/03 12:37:05;;;;;;;;;24.50;21.75;;;;;;;;5049754;28;11586;-80
2023/12/03 12:39:33;;;;;;;;;37.33;33.33;;;;;;;;5050129;28;11573;-77
2023/12/03 12:42:00;;;;;;;;;32.67;26.67;;;;;;;;5048821;28;11671;-82
2023/12/03 12:44:41;;;;;;;;;36.33;29.33;;;;;;;;5048470;28;11571;-79
2023/12/03 12:47:08;;;;;;;;;27.67;24.00;;;;;;;;5048525;28;12398;-80
2023/12/03 12:49:40;;;;;;;;;32.33;30.33;;;;;;;;5054303;28;11607;-78
2023/12/03 12:52:15;;;;;;;;;35.25;28.75;;;;;;;;5048990;28;11710;-77
2023/12/03 12:54:46;;;;;;;;;36.33;32.00;;;;;;;;5048268;28;11692;-80
2023/12/03 12:57:13;;;;;;;;;36.00;28.00;;;;;;;;5048835;28;11652;-81
2023/12/03 12:59:41;;;;;;;;;27.75;25.25;;;;;;;;5048696;28;11674;-81
2023/12/03 13:02:08;;;;;;;;;33.00;30.25;;;;;;;;5047653;28;11521;-82
2023/12/03 13:04:37;;;;;;;;;34.75;29.00;;;;;;;;5049247;28;11541;-82
2023/12/03 13:07:04;;;;;;;;;34.00;31.25;;;;;;;;5048368;28;11580;-82
2023/12/03 13:09:32;;;;;;;;;26.50;25.00;;;;;;;;5050161;28;11722;-80
2023/12/03 13:11:59;;;;;;;;;39.50;33.50;;;;;;;;5051777;28;11804;-77
2023/12/03 13:14:30;;;;;;;;;30.50;24.75;;;;;;;;5053101;28;11586;-81
2023/12/03 13:16:59;;;;;;;;;21.50;20.25;;;;;;;;5049975;28;11633;-74
2023/12/03 13:19:26;;;;;;;;;24.00;24.00;;;;;;;;5052377;28;11573;-79
2023/12/03 13:21:58;;;;;;;;;32.00;32.00;;;;;;;;5045789;28;11588;-81
2023/12/03 13:24:26;;;;;;;;;21.00;21.00;;;;;;;;5045088;28;11592;-80
2023/12/03 13:26:53;;;;;;;;;25.00;21.50;;;;;;;;5048936;28;11554;-76
2023/12/03 13:29:20;;;;;;;;;26.75;24.00;;;;;;;;5048310;28;11644;-75
2023/12/03 13:31:48;;;;;;;;;29.50;24.25;;;;;;;;5047943;28;11643;-80
2023/12/03 13:34:15;;;;;;;;;30.25;18.75;;;;;;;;5049590;28;11549;-76
2023/12/03 13:36:42;;;;;;;;;22.25;16.50;;;;;;;;5049390;28;11612;-76
2023/12/03 13:39:11;;;;;;;;;22.75;21.50;;;;;;;;5047461;28;11568;-79
2023/12/03 13:41:38;;;;;;;;;33.75;32.25;;;;;;;;5035496;28;11554;-80
2023/12/03 13:44:06;;;;;;;;;44.00;40.00;;;;;;;;5046634;28;11624;-80
2023/12/03 13:46:33;;;;;;;;;23.75;19.00;;;;;;;;5047640;28;11583;-81
2023/12/03 13:49:00;;;;;;;;;22.00;18.75;;;;;;;;5046675;28;11561;-77
2023/12/03 13:51:28;;;;;;;;;29.50;25.00;;;;;;;;5047157;28;11575;-77
2023/12/03 13:53:56;;;;;;;;;26.25;25.00;;;;;;;;5046078;28;11563;-74
2023/12/03 13:56:24;;;;;;;;;21.50;19.00;;;;;;;;5048214;28;11572;-77
2023/12/03 13:58:51;;;;;;;;;25.75;25.75;;;;;;;;5047838;28;11576;-77
2023/12/03 14:01:19;;;;;;;;;31.75;27.75;;;;;;;;5051018;28;11507;-81
2023/12/03 14:03:46;;;;;;;;;29.50;28.00;;;;;;;;5041357;28;11575;-76
2023/12/03 14:06:13;;;;;;;;;26.00;24.25;;;;;;;;5045431;28;11567;-79
2023/12/03 14:08:41;;;;;;;;;21.00;20.75;;;;;;;;5047956;28;11538;-75
2023/12/03 14:11:08;;;;;;;;;28.25;23.25;;;;;;;;5051405;28;11569;-75
2023/12/03 14:13:37;;;;;;;;;17.25;10.50;;;;;;;;5050925;28;12331;-75
2023/12/03 14:16:04;;;;;;;;;32.75;26.25;;;;;;;;5041600;28;11555;-77
2023/12/03 14:18:34;;;;;;;;;34.25;30.50;;;;;;;;5051243;28;11590;-81
2023/12/03 14:21:02;;;;;;;;;24.75;22.25;;;;;;;;5051024;28;11580;-75
2023/12/03 14:23:29;;;;;;;;;27.25;21.50;;;;;;;;5050953;28;11558;-77
2023/12/03 14:25:58;;;;;;;;;19.75;17.75;;;;;;;;5051592;28;11556;-78
2023/12/03 14:28:26;;;;;;;;;13.00;10.25;;;;;;;;5051439;28;11557;-76
2023/12/03 14:30:57;;;;;;;;;22.25;21.75;;;;;;;;5051605;28;11570;-77